Time;durP1;ratioP1;P1;durP2;ratioP2;P2;SDS_P1;SDS_P2;PMS_P1;PMS_P2;Temp;Humidity;BMP_temperature;BMP_pressure;BME280_temperature;BME280_humidity;BME280_pressure;Samples;Min_cycle;Max_cycle;Signal;HPM_P1;HPM_P2
2024/03/06 00:01:08;;;;;;;69.97;30.02;;;;;;;;;;5055191;28;20021;-73
2024/03/06 00:03:34;;;;;;;197.38;42.22;;;;;;;;;;5053796;28;20073;-73
2024/03/06 00:06:00;;;;;;;76.68;31.83;;;;;;;;;;5067244;28;20424;-73
2024/03/06 00:08:27;;;;;;;111.50;41.65;;;;;;;;;;5061369;28;20029;-73
2024/03/06 00:10:53;;;;;;;96.38;39.88;;;;;;;;;;5067456;28;20086;-74
2024/03/06 00:13:20;;;;;;;85.03;37.35;;;;;;;;;;5064235;28;20025;-73
2024/03/06 00:15:46;;;;;;;90.53;36.13;;;;;;;;;;5069271;28;20021;-73
2024/03/06 00:18:12;;;;;;;199.07;45.97;;;;;;;;;;5056061;28;20025;-78
2024/03/06 00:20:40;;;;;;;75.53;28.90;;;;;;;;;;5062392;28;20028;-78
2024/03/06 00:23:06;;;;;;;52.95;24.00;;;;;;;;;;5058015;28;20029;-72
2024/03/06 00:25:32;;;;;;;66.50;29.40;;;;;;;;;;5062993;28;20028;-78
2024/03/06 00:27:58;;;;;;;67.82;29.90;;;;;;;;;;5057186;28;20047;-72
2024/03/06 00:30:24;;;;;;;72.25;31.55;;;;;;;;;;5062661;28;20039;-72
2024/03/06 00:32:50;;;;;;;55.58;24.52;;;;;;;;;;5058607;28;20032;-78
2024/03/06 00:35:17;;;;;;;46.65;21.58;;;;;;;;;;5062480;28;20020;-76
2024/03/06 00:37:43;;;;;;;46.78;21.73;;;;;;;;;;5057582;28;20107;-78
2024/03/06 00:40:09;;;;;;;43.78;21.85;;;;;;;;;;5060126;28;20496;-72
2024/03/06 00:42:35;;;;;;;48.63;22.67;;;;;;;;;;5057361;28;20055;-72
2024/03/06 00:45:02;;;;;;;67.95;26.35;;;;;;;;;;5057168;28;20017;-78
2024/03/06 00:47:28;;;;;;;65.03;28.33;;;;;;;;;;5059173;28;20063;-72
2024/03/06 00:49:54;;;;;;;93.07;28.17;;;;;;;;;;5058988;28;20105;-78
2024/03/06 00:52:20;;;;;;;71.30;28.52;;;;;;;;;;5067288;28;20016;-78
2024/03/06 00:54:46;;;;;;;56.10;27.70;;;;;;;;;;5066468;28;20024;-78
2024/03/06 00:57:12;;;;;;;88.72;39.88;;;;;;;;;;5056623;28;20098;-72
2024/03/06 00:59:38;;;;;;;72.50;27.45;;;;;;;;;;5058468;28;20021;-78
2024/03/06 01:02:06;;;;;;;95.97;29.83;;;;;;;;;;5052271;28;20028;-77
2024/03/06 01:04:32;;;;;;;78.32;31.45;;;;;;;;;;5051524;28;20017;-72
2024/03/06 01:06:58;;;;;;;60.10;25.80;;;;;;;;;;5052582;28;20036;-78
2024/03/06 01:09:24;;;;;;;67.53;26.75;;;;;;;;;;5051491;28;20025;-73
2024/03/06 01:11:51;;;;;;;44.70;22.58;;;;;;;;;;5053156;28;20067;-78
2024/03/06 01:14:17;;;;;;;68.07;30.85;;;;;;;;;;5052793;28;20117;-78
2024/03/06 01:16:43;;;;;;;73.75;29.25;;;;;;;;;;5051669;28;20016;-73
2024/03/06 01:19:09;;;;;;;63.97;25.65;;;;;;;;;;5053756;28;20025;-73
2024/03/06 01:21:35;;;;;;;68.95;26.92;;;;;;;;;;5052064;28;20367;-78
2024/03/06 01:24:01;;;;;;;120.72;30.90;;;;;;;;;;5052199;28;20029;-78
2024/03/06 01:26:27;;;;;;;126.45;32.35;;;;;;;;;;5052165;28;20545;-78
2024/03/06 01:28:53;;;;;;;84.18;29.38;;;;;;;;;;5052129;28;20116;-78
2024/03/06 01:31:20;;;;;;;128.88;31.77;;;;;;;;;;5053681;28;20013;-72
2024/03/06 01:33:46;;;;;;;103.22;31.08;;;;;;;;;;5053228;28;20033;-73
2024/03/06 01:36:12;;;;;;;81.30;32.15;;;;;;;;;;5057099;28;20024;-78
2024/03/06 01:38:39;;;;;;;116.55;34.47;;;;;;;;;;5067092;28;20477;-78
2024/03/06 01:41:05;;;;;;;80.60;29.83;;;;;;;;;;5064849;28;20021;-72
2024/03/06 01:43:37;;;;;;;85.53;27.98;;;;;;;;;;5068292;28;20127;-79
2024/03/06 01:46:03;;;;;;;179.75;35.03;;;;;;;;;;5063080;28;20017;-73
2024/03/06 01:48:31;;;;;;;54.83;23.65;;;;;;;;;;5066278;28;20496;-72
2024/03/06 01:50:58;;;;;;;66.85;26.25;;;;;;;;;;5060918;28;20514;-73
2024/03/06 01:53:24;;;;;;;194.43;31.23;;;;;;;;;;5066428;28;20033;-73
2024/03/06 01:55:51;;;;;;;144.48;32.53;;;;;;;;;;5060232;28;20492;-79
2024/03/06 01:58:17;;;;;;;77.45;26.67;;;;;;;;;;5066337;28;20108;-78
2024/03/06 02:00:43;;;;;;;76.05;28.23;;;;;;;;;;5060495;28;20025;-73
2024/03/06 02:03:11;;;;;;;78.18;26.38;;;;;;;;;;5052404;28;20021;-78
2024/03/06 02:05:37;;;;;;;82.82;26.30;;;;;;;;;;5043154;28;20025;-73
2024/03/06 02:08:03;;;;;;;76.38;28.77;;;;;;;;;;5055765;28;20542;-78
2024/03/06 02:10:31;;;;;;;161.32;29.60;;;;;;;;;;5067774;28;20025;-78
2024/03/06 02:12:57;;;;;;;141.20;27.52;;;;;;;;;;5065368;28;20486;-78
2024/03/06 02:15:24;;;;;;;121.20;26.00;;;;;;;;;;5067960;28;20035;-72
2024/03/06 02:17:50;;;;;;;100.45;23.88;;;;;;;;;;5063124;28;20033;-78
2024/03/06 02:20:17;;;;;;;149.07;30.00;;;;;;;;;;5067895;28;20028;-78
2024/03/06 02:22:43;;;;;;;100.75;23.20;;;;;;;;;;5069448;28;20024;-78
2024/03/06 02:25:09;;;;;;;145.88;27.73;;;;;;;;;;5069612;28;20071;-78
2024/03/06 02:27:35;;;;;;;141.90;26.73;;;;;;;;;;5070349;28;20051;-78
2024/03/06 02:30:01;;;;;;;87.13;21.48;;;;;;;;;;5069373;28;20032;-72
2024/03/06 02:32:27;;;;;;;119.53;27.75;;;;;;;;;;5069027;28;20478;-78
2024/03/06 02:34:53;;;;;;;62.53;21.10;;;;;;;;;;5069640;28;20363;-78
2024/03/06 02:37:19;;;;;;;65.00;22.40;;;;;;;;;;5070177;28;20020;-72
2024/03/06 02:39:45;;;;;;;58.90;19.40;;;;;;;;;;5069863;28;20104;-78
2024/03/06 02:42:11;;;;;;;120.07;27.73;;;;;;;;;;5070579;28;20540;-78
2024/03/06 02:44:37;;;;;;;58.63;22.10;;;;;;;;;;5068248;28;20032;-73
2024/03/06 02:47:04;;;;;;;70.70;24.08;;;;;;;;;;5068855;28;20384;-73
2024/03/06 02:49:30;;;;;;;49.60;19.83;;;;;;;;;;5069410;28;20024;-78
2024/03/06 02:51:56;;;;;;;93.60;22.50;;;;;;;;;;5070120;28;20525;-73
2024/03/06 02:54:24;;;;;;;44.20;19.60;;;;;;;;;;5065415;28;20024;-73
2024/03/06 02:56:52;;;;;;;77.05;20.92;;;;;;;;;;5068128;28;20078;-73
2024/03/06 02:59:18;;;;;;;53.72;19.05;;;;;;;;;;5069477;28;20025;-78
2024/03/06 03:01:45;;;;;;;45.85;17.77;;;;;;;;;;5060047;28;20097;-73
2024/03/06 03:04:11;;;;;;;51.97;21.05;;;;;;;;;;5068293;28;20478;-73
2024/03/06 03:06:37;;;;;;;44.10;20.38;;;;;;;;;;5061574;28;20075;-73
2024/03/06 03:09:03;;;;;;;63.05;19.98;;;;;;;;;;5066932;28;20028;-78
2024/03/06 03:11:30;;;;;;;64.55;21.80;;;;;;;;;;5059877;28;20474;-79
2024/03/06 03:13:56;;;;;;;59.28;22.67;;;;;;;;;;5063946;28;20025;-79
2024/03/06 03:16:22;;;;;;;48.28;21.73;;;;;;;;;;5053231;28;20028;-78
2024/03/06 03:18:49;;;;;;;45.67;18.92;;;;;;;;;;5054608;28;20020;-78
2024/03/06 03:21:15;;;;;;;43.40;20.08;;;;;;;;;;5053272;28;20458;-78
2024/03/06 03:23:41;;;;;;;42.30;19.60;;;;;;;;;;5053590;28;20044;-79
2024/03/06 03:26:10;;;;;;;43.72;20.05;;;;;;;;;;5054243;28;20024;-79
2024/03/06 03:28:39;;;;;;;46.25;20.25;;;;;;;;;;5053125;28;20036;-79
2024/03/06 03:31:05;;;;;;;48.30;21.70;;;;;;;;;;5053495;28;20033;-73
2024/03/06 03:33:31;;;;;;;52.58;22.50;;;;;;;;;;5054477;28;20036;-73
2024/03/06 03:35:57;;;;;;;44.47;19.90;;;;;;;;;;5053026;28;20159;-72
2024/03/06 03:38:23;;;;;;;39.35;18.13;;;;;;;;;;5052966;28;20055;-73
2024/03/06 03:40:49;;;;;;;44.13;20.05;;;;;;;;;;5052943;28;20067;-73
2024/03/06 03:43:15;;;;;;;40.30;19.15;;;;;;;;;;5054250;28;20059;-78
2024/03/06 03:45:42;;;;;;;35.50;17.50;;;;;;;;;;5069701;28;20020;-72
2024/03/06 03:48:08;;;;;;;39.40;18.00;;;;;;;;;;5064829;28;20127;-73
2024/03/06 03:50:34;;;;;;;32.58;16.70;;;;;;;;;;5054326;28;20021;-79
2024/03/06 03:53:00;;;;;;;36.88;17.65;;;;;;;;;;5066988;28;20427;-73
2024/03/06 03:55:27;;;;;;;37.13;17.63;;;;;;;;;;5061705;28;20068;-79
2024/03/06 03:57:53;;;;;;;37.30;18.67;;;;;;;;;;5055913;28;20389;-79
2024/03/06 04:00:19;;;;;;;41.33;17.52;;;;;;;;;;5061718;28;20032;-79
2024/03/06 04:02:46;;;;;;;47.33;18.00;;;;;;;;;;5071685;28;20024;-78
2024/03/06 04:05:14;;;;;;;42.78;18.80;;;;;;;;;;5058319;28;20026;-78
2024/03/06 04:07:40;;;;;;;54.25;19.48;;;;;;;;;;5060228;28;20044;-78
2024/03/06 04:10:07;;;;;;;52.42;22.13;;;;;;;;;;5059335;28;20028;-73
2024/03/06 04:12:33;;;;;;;70.05;23.95;;;;;;;;;;5057085;28;20474;-73
2024/03/06 04:14:59;;;;;;;48.50;22.20;;;;;;;;;;5057752;28;20064;-73
2024/03/06 04:17:25;;;;;;;49.83;22.55;;;;;;;;;;5058434;28;20371;-79
2024/03/06 04:19:53;;;;;;;55.00;23.15;;;;;;;;;;5055168;28;20020;-78
2024/03/06 04:22:19;;;;;;;50.17;22.95;;;;;;;;;;5057321;28;20410;-77
2024/03/06 04:24:45;;;;;;;43.15;20.67;;;;;;;;;;5052380;28;20111;-78
2024/03/06 04:27:11;;;;;;;41.88;20.58;;;;;;;;;;5056427;28;20504;-78
2024/03/06 04:29:37;;;;;;;48.88;21.38;;;;;;;;;;5054159;28;20032;-72
2024/03/06 04:32:04;;;;;;;56.42;20.10;;;;;;;;;;5053264;28;20019;-72
2024/03/06 04:34:30;;;;;;;48.60;20.83;;;;;;;;;;5061927;28;20025;-72
2024/03/06 04:36:56;;;;;;;51.25;21.20;;;;;;;;;;5063840;28;20063;-72
2024/03/06 04:39:22;;;;;;;42.28;20.88;;;;;;;;;;5066274;28;20024;-72
2024/03/06 04:41:49;;;;;;;43.30;20.23;;;;;;;;;;5060589;28;20474;-72
2024/03/06 04:44:15;;;;;;;47.95;21.67;;;;;;;;;;5067835;28;20059;-79
2024/03/06 04:46:41;;;;;;;52.22;21.92;;;;;;;;;;5065003;28;20450;-79
2024/03/06 04:49:07;;;;;;;47.53;22.25;;;;;;;;;;5058544;28;20064;-72
2024/03/06 04:51:34;;;;;;;49.50;22.17;;;;;;;;;;5057620;28;20029;-77
2024/03/06 04:54:00;;;;;;;54.58;22.45;;;;;;;;;;5064505;28;20055;-79
2024/03/06 04:56:26;;;;;;;53.10;24.50;;;;;;;;;;5064345;28;20056;-78
2024/03/06 04:58:52;;;;;;;65.28;27.13;;;;;;;;;;5064202;28;20021;-79
2024/03/06 05:01:18;;;;;;;63.15;26.75;;;;;;;;;;5062793;28;20029;-72
2024/03/06 05:03:44;;;;;;;62.20;25.73;;;;;;;;;;5065564;28;20020;-79
2024/03/06 05:06:11;;;;;;;59.65;27.48;;;;;;;;;;5062605;28;20120;-78
2024/03/06 05:08:37;;;;;;;57.03;25.27;;;;;;;;;;5064383;28;20047;-73
2024/03/06 05:11:04;;;;;;;55.78;25.08;;;;;;;;;;5062899;28;20036;-72
2024/03/06 05:13:30;;;;;;;55.00;25.30;;;;;;;;;;5063200;28;20052;-78
2024/03/06 05:15:56;;;;;;;56.65;23.95;;;;;;;;;;5062831;28;20059;-72
2024/03/06 05:18:22;;;;;;;50.50;23.65;;;;;;;;;;5064171;28;20493;-79
2024/03/06 05:20:48;;;;;;;52.25;24.90;;;;;;;;;;5056127;28;20426;-79
2024/03/06 05:23:14;;;;;;;46.38;23.23;;;;;;;;;;5060270;28;20056;-78
2024/03/06 05:25:41;;;;;;;48.42;23.65;;;;;;;;;;5055123;28;20024;-78
2024/03/06 05:28:07;;;;;;;59.47;25.85;;;;;;;;;;5072227;28;20044;-73
2024/03/06 05:30:33;;;;;;;59.95;24.08;;;;;;;;;;5072112;28;20060;-72
2024/03/06 05:32:59;;;;;;;53.17;23.88;;;;;;;;;;5072295;28;20044;-78
2024/03/06 05:35:25;;;;;;;53.22;26.25;;;;;;;;;;5070208;28;20017;-78
2024/03/06 05:37:51;;;;;;;52.90;24.27;;;;;;;;;;5060906;28;20151;-78
2024/03/06 05:40:17;;;;;;;57.70;24.83;;;;;;;;;;5056346;28;20032;-78
2024/03/06 05:42:43;;;;;;;60.30;29.02;;;;;;;;;;5056421;28;20053;-78
2024/03/06 05:45:12;;;;;;;66.97;29.40;;;;;;;;;;5056353;28;20058;-78
2024/03/06 05:47:38;;;;;;;76.75;32.13;;;;;;;;;;5055110;28;20071;-73
2024/03/06 05:50:05;;;;;;;78.28;32.35;;;;;;;;;;5056307;28;20036;-72
2024/03/06 05:52:32;;;;;;;70.22;30.52;;;;;;;;;;5056846;28;20029;-73
2024/03/06 05:54:58;;;;;;;65.45;29.95;;;;;;;;;;5055985;28;20029;-77
2024/03/06 05:57:24;;;;;;;64.60;26.67;;;;;;;;;;5055768;28;20024;-73
2024/03/06 05:59:50;;;;;;;65.40;27.58;;;;;;;;;;5053856;28;20028;-79
2024/03/06 06:02:18;;;;;;;59.80;24.95;;;;;;;;;;5041234;28;20025;-78
2024/03/06 06:04:44;;;;;;;56.42;26.25;;;;;;;;;;5060616;28;20016;-79
2024/03/06 06:07:10;;;;;;;62.47;28.20;;;;;;;;;;5048013;28;20034;-79
2024/03/06 06:09:36;;;;;;;56.50;25.25;;;;;;;;;;5056634;28;20032;-79
2024/03/06 06:12:02;;;;;;;56.25;24.52;;;;;;;;;;5045563;28;20017;-73
2024/03/06 06:14:29;;;;;;;59.05;26.50;;;;;;;;;;5059849;28;20512;-73
2024/03/06 06:16:55;;;;;;;56.17;25.17;;;;;;;;;;5050257;28;20025;-78
2024/03/06 06:19:21;;;;;;;50.97;25.10;;;;;;;;;;5055054;28;20029;-78
2024/03/06 06:21:48;;;;;;;65.35;26.48;;;;;;;;;;5056140;28;20021;-78
2024/03/06 06:24:14;;;;;;;57.63;25.40;;;;;;;;;;5055564;28;20445;-79
2024/03/06 06:26:42;;;;;;;69.28;28.23;;;;;;;;;;5055845;28;20055;-78
2024/03/06 06:29:08;;;;;;;66.70;28.05;;;;;;;;;;5053995;28;20560;-79
2024/03/06 06:31:34;;;;;;;65.03;26.30;;;;;;;;;;5054636;28;20067;-79
2024/03/06 06:34:01;;;;;;;69.72;27.20;;;;;;;;;;5056866;28;20070;-79
2024/03/06 06:36:27;;;;;;;61.92;27.20;;;;;;;;;;5056368;28;20367;-79
2024/03/06 06:38:54;;;;;;;63.25;26.90;;;;;;;;;;5053994;28;20505;-79
2024/03/06 06:41:20;;;;;;;59.92;25.00;;;;;;;;;;5052380;28;20056;-79
2024/03/06 06:43:46;;;;;;;65.55;25.92;;;;;;;;;;5056032;28;20557;-73
2024/03/06 06:46:12;;;;;;;63.22;27.95;;;;;;;;;;5056275;28;20055;-73
2024/03/06 06:48:38;;;;;;;62.75;26.38;;;;;;;;;;5052467;28;20525;-73
2024/03/06 06:51:05;;;;;;;61.00;26.17;;;;;;;;;;5056692;28;20087;-73
2024/03/06 06:53:31;;;;;;;71.78;28.75;;;;;;;;;;5054938;28;20032;-74
2024/03/06 06:55:58;;;;;;;59.60;26.73;;;;;;;;;;5057315;28;20049;-74
2024/03/06 06:58:24;;;;;;;61.88;27.27;;;;;;;;;;5055548;28;20025;-73
2024/03/06 07:00:50;;;;;;;59.03;26.90;;;;;;;;;;5055115;28;20493;-73
2024/03/06 07:03:16;;;;;;;65.10;29.40;;;;;;;;;;5057969;28;20382;-73
2024/03/06 07:05:42;;;;;;;66.43;27.67;;;;;;;;;;5062895;28;20033;-74
2024/03/06 07:08:09;;;;;;;68.18;30.63;;;;;;;;;;5061922;28;20037;-73
2024/03/06 07:10:35;;;;;;;66.50;27.52;;;;;;;;;;5062152;28;20025;-73
2024/03/06 07:13:02;;;;;;;61.83;29.55;;;;;;;;;;5063145;28;20060;-74
2024/03/06 07:15:29;;;;;;;63.25;27.02;;;;;;;;;;5061399;28;20036;-73
2024/03/06 07:17:55;;;;;;;62.72;27.55;;;;;;;;;;5060143;28;20071;-73
2024/03/06 07:20:21;;;;;;;64.82;28.23;;;;;;;;;;5055794;28;20037;-73
2024/03/06 07:22:47;;;;;;;63.25;27.48;;;;;;;;;;5052573;28;20064;-73
2024/03/06 07:25:14;;;;;;;54.28;24.83;;;;;;;;;;5052194;28;20446;-73
2024/03/06 07:27:40;;;;;;;56.10;27.70;;;;;;;;;;5045146;28;20939;-74
2024/03/06 07:30:07;;;;;;;53.90;23.73;;;;;;;;;;5041934;28;20029;-74
2024/03/06 07:32:33;;;;;;;53.58;24.08;;;;;;;;;;5048179;28;20017;-74
2024/03/06 07:34:59;;;;;;;85.85;37.42;;;;;;;;;;5057992;28;20021;-80
2024/03/06 07:37:25;;;;;;;60.00;28.77;;;;;;;;;;5064382;28;20028;-79
2024/03/06 07:39:51;;;;;;;62.17;24.27;;;;;;;;;;5058580;28;20025;-79
2024/03/06 07:42:18;;;;;;;58.05;25.80;;;;;;;;;;5066520;28;20484;-74
2024/03/06 07:44:44;;;;;;;53.10;25.90;;;;;;;;;;5061357;28;20017;-79
2024/03/06 07:47:10;;;;;;;65.50;27.30;;;;;;;;;;5067298;28;20044;-73
2024/03/06 07:49:36;;;;;;;64.53;27.75;;;;;;;;;;5064931;28;20032;-80
2024/03/06 07:52:03;;;;;;;66.68;32.08;;;;;;;;;;5066488;28;20025;-80
2024/03/06 07:54:29;;;;;;;65.95;29.85;;;;;;;;;;5062194;28;20021;-80
2024/03/06 07:56:55;;;;;;;67.88;29.50;;;;;;;;;;5068990;28;20104;-80
2024/03/06 07:59:21;;;;;;;59.28;29.27;;;;;;;;;;5064626;28;20036;-74
2024/03/06 08:01:48;;;;;;;61.80;31.45;;;;;;;;;;5059255;28;20372;-79
2024/03/06 08:04:14;;;;;;;62.05;29.30;;;;;;;;;;5064609;28;20017;-74
2024/03/06 08:06:40;;;;;;;80.93;37.63;;;;;;;;;;5068924;28;20474;-74
2024/03/06 08:09:07;;;;;;;68.82;34.90;;;;;;;;;;5066649;28;20029;-73
2024/03/06 08:11:33;;;;;;;59.25;29.10;;;;;;;;;;5068999;28;20017;-74
2024/03/06 08:14:01;;;;;;;66.50;30.92;;;;;;;;;;5064759;28;20468;-74
2024/03/06 08:16:28;;;;;;;54.75;25.45;;;;;;;;;;5068683;28;20025;-80
2024/03/06 08:18:54;;;;;;;49.22;24.27;;;;;;;;;;5057950;28;20021;-80
2024/03/06 08:21:20;;;;;;;45.83;23.90;;;;;;;;;;5070412;28;20420;-80
2024/03/06 08:23:47;;;;;;;49.75;25.63;;;;;;;;;;5065353;28;20028;-74
2024/03/06 08:26:13;;;;;;;50.10;26.15;;;;;;;;;;5060099;28;20049;-74
2024/03/06 08:28:39;;;;;;;46.67;23.60;;;;;;;;;;5069991;28;20040;-80
2024/03/06 08:31:05;;;;;;;51.05;26.23;;;;;;;;;;5052161;28;20056;-74
2024/03/06 08:33:32;;;;;;;48.13;25.08;;;;;;;;;;5053465;28;20025;-80
2024/03/06 08:35:58;;;;;;;56.45;25.35;;;;;;;;;;5053734;28;20842;-79
2024/03/06 08:38:24;;;;;;;53.05;25.67;;;;;;;;;;5052560;28;20039;-74
2024/03/06 08:40:50;;;;;;;54.53;25.10;;;;;;;;;;5053699;28;20462;-73
2024/03/06 08:43:17;;;;;;;63.28;29.08;;;;;;;;;;5052623;28;20139;-79
2024/03/06 08:45:44;;;;;;;60.60;29.08;;;;;;;;;;5053712;28;20552;-73
2024/03/06 08:48:10;;;;;;;54.30;26.67;;;;;;;;;;5052239;28;20468;-74
2024/03/06 08:50:36;;;;;;;58.65;27.80;;;;;;;;;;5052117;28;20225;-74
2024/03/06 08:53:03;;;;;;;83.20;39.03;;;;;;;;;;5051669;28;20830;-74
2024/03/06 08:55:29;;;;;;;274.95;111.75;;;;;;;;;;5060622;28;20086;-80
2024/03/06 08:57:55;;;;;;;173.80;74.70;;;;;;;;;;5070575;28;20111;-74
2024/03/06 09:00:21;;;;;;;148.48;64.85;;;;;;;;;;5071237;28;20024;-74
2024/03/06 09:02:47;;;;;;;83.72;36.70;;;;;;;;;;5062013;28;21310;-74
2024/03/06 09:05:13;;;;;;;56.55;29.00;;;;;;;;;;5062011;28;20020;-74
2024/03/06 09:07:43;;;;;;;49.80;24.67;;;;;;;;;;5069571;28;20805;-78
2024/03/06 09:10:10;;;;;;;48.63;25.15;;;;;;;;;;5071154;28;20028;-79
2024/03/06 09:12:36;;;;;;;46.55;23.40;;;;;;;;;;5070960;28;20253;-80
2024/03/06 09:15:02;;;;;;;49.33;24.02;;;;;;;;;;5071028;28;20398;-79
2024/03/06 09:17:29;;;;;;;46.95;23.00;;;;;;;;;;5071857;28;20023;-79
2024/03/06 09:19:55;;;;;;;46.42;23.05;;;;;;;;;;5070998;28;20056;-74
2024/03/06 09:22:21;;;;;;;45.80;23.27;;;;;;;;;;5071576;28;20052;-74
2024/03/06 09:24:48;;;;;;;48.50;23.77;;;;;;;;;;5061724;28;20119;-74
2024/03/06 09:27:14;;;;;;;51.85;25.30;;;;;;;;;;5051360;28;20079;-79
2024/03/06 09:29:41;;;;;;;48.30;24.23;;;;;;;;;;5051395;28;20024;-73
2024/03/06 09:32:07;;;;;;;48.47;24.75;;;;;;;;;;5053797;28;20477;-79
2024/03/06 09:34:33;;;;;;;44.22;22.20;;;;;;;;;;5054416;28;20028;-74
2024/03/06 09:36:59;;;;;;;48.20;23.42;;;;;;;;;;5055317;28;20021;-74
2024/03/06 09:39:25;;;;;;;49.85;24.92;;;;;;;;;;5054167;28;20040;-74
2024/03/06 09:41:51;;;;;;;47.60;24.73;;;;;;;;;;5055554;28;20075;-79
2024/03/06 09:44:20;;;;;;;64.00;30.30;;;;;;;;;;5052239;28;20132;-74
2024/03/06 09:46:46;;;;;;;81.05;37.20;;;;;;;;;;5051792;28;20474;-79
2024/03/06 09:49:16;;;;;;;62.75;31.80;;;;;;;;;;5053528;28;20029;-74
2024/03/06 09:51:53;;;;;;;67.55;32.17;;;;;;;;;;5050911;28;20017;-79
2024/03/06 09:54:20;;;;;;;77.47;34.97;;;;;;;;;;5054701;28;20017;-74
2024/03/06 09:56:49;;;;;;;88.00;39.03;;;;;;;;;;5053495;28;20025;-74
2024/03/06 09:59:15;;;;;;;64.80;32.45;;;;;;;;;;5053004;28;20501;-74
2024/03/06 10:01:51;;;;;;;65.70;30.58;;;;;;;;;;5052123;28;20074;-80
2024/03/06 10:04:20;;;;;;;87.10;38.40;;;;;;;;;;5053493;28;20557;-74
2024/03/06 10:06:47;;;;;;;87.53;42.90;;;;;;;;;;5052205;28;20033;-74
2024/03/06 10:09:13;;;;;;;75.28;37.03;;;;;;;;;;5054632;28;20417;-75
2024/03/06 10:11:44;;;;;;;73.25;35.90;;;;;;;;;;5052341;28;20535;-80
2024/03/06 10:14:11;;;;;;;79.93;36.20;;;;;;;;;;5053979;28;20021;-79
2024/03/06 10:16:37;;;;;;;78.25;36.58;;;;;;;;;;5052766;28;20025;-76
2024/03/06 10:19:19;;;;;;;102.45;47.60;;;;;;;;;;5055555;28;20478;-80
2024/03/06 10:21:50;;;;;;;93.25;43.90;;;;;;;;;;5053546;28;20363;-80
2024/03/06 10:24:23;;;;;;;100.60;49.75;;;;;;;;;;5054922;28;20017;-80
2024/03/06 10:26:50;;;;;;;131.20;61.03;;;;;;;;;;5054372;28;20029;-79
2024/03/06 10:29:18;;;;;;;52.53;27.35;;;;;;;;;;5054366;28;20029;-74
2024/03/06 10:31:54;;;;;;;60.15;28.17;;;;;;;;;;5055729;28;20025;-80
2024/03/06 10:34:21;;;;;;;58.40;27.35;;;;;;;;;;5042602;28;20021;-74
2024/03/06 10:36:53;;;;;;;58.97;30.80;;;;;;;;;;5056528;28;20112;-79
2024/03/06 10:39:21;;;;;;;61.58;28.90;;;;;;;;;;5056052;28;20017;-80
2024/03/06 10:41:51;;;;;;;56.17;28.80;;;;;;;;;;5054734;28;20017;-74
2024/03/06 10:44:22;;;;;;;76.20;35.35;;;;;;;;;;5056066;28;20075;-79
2024/03/06 10:46:49;;;;;;;71.57;33.28;;;;;;;;;;5054943;28;20023;-79
2024/03/06 10:49:16;;;;;;;73.57;35.05;;;;;;;;;;5055912;28;20024;-79
2024/03/06 10:51:43;;;;;;;87.18;41.85;;;;;;;;;;5056379;28;20070;-74
2024/03/06 10:54:11;;;;;;;98.85;48.00;;;;;;;;;;5054722;28;20021;-74
2024/03/06 10:56:39;;;;;;;78.55;42.15;;;;;;;;;;5056467;28;20028;-79
2024/03/06 10:59:06;;;;;;;76.55;37.90;;;;;;;;;;5055771;28;20423;-74
2024/03/06 11:01:32;;;;;;;89.60;41.80;;;;;;;;;;5054642;28;20013;-74
2024/03/06 11:03:59;;;;;;;73.43;33.20;;;;;;;;;;5056068;28;20028;-74
2024/03/06 11:06:26;;;;;;;70.43;32.35;;;;;;;;;;5055437;28;20570;-80
2024/03/06 11:08:52;;;;;;;62.33;28.88;;;;;;;;;;5054558;28;20063;-74
2024/03/06 11:11:22;;;;;;;52.50;26.05;;;;;;;;;;5055197;28;20025;-74
2024/03/06 11:13:49;;;;;;;59.25;28.27;;;;;;;;;;5056225;28;20017;-80
2024/03/06 11:16:15;;;;;;;35.83;19.23;;;;;;;;;;5056107;28;20111;-80
2024/03/06 11:18:42;;;;;;;34.33;20.42;;;;;;;;;;5055142;28;20017;-80
2024/03/06 11:21:11;;;;;;;36.17;18.75;;;;;;;;;;5056463;28;20096;-79
2024/03/06 11:23:57;;;;;;;32.40;18.33;;;;;;;;;;5057578;28;20171;-80
2024/03/06 11:26:24;;;;;;;29.60;16.20;;;;;;;;;;5042493;28;20048;-80
2024/03/06 11:28:51;;;;;;;36.50;19.00;;;;;;;;;;5054832;28;20044;-74
2024/03/06 11:31:20;;;;;;;32.75;18.00;;;;;;;;;;5055167;28;20436;-79
2024/03/06 11:33:46;;;;;;;126.32;44.72;;;;;;;;;;5054926;28;20025;-74
2024/03/06 11:36:20;;;;;;;58.22;26.02;;;;;;;;;;5053428;28;20100;-74
2024/03/06 11:38:55;;;;;;;34.05;17.83;;;;;;;;;;5057371;28;20082;-74
2024/03/06 11:41:26;;;;;;;112.43;51.65;;;;;;;;;;5062241;28;20033;-74
2024/03/06 11:43:55;;;;;;;58.10;27.08;;;;;;;;;;5073488;28;20044;-80
2024/03/06 11:46:21;;;;;;;51.38;26.98;;;;;;;;;;5072244;28;20457;-80
2024/03/06 11:48:58;;;;;;;61.03;34.83;;;;;;;;;;5061327;28;20413;-80
2024/03/06 11:51:24;;;;;;;48.35;26.25;;;;;;;;;;5072251;28;20032;-74
2024/03/06 11:53:51;;;;;;;38.25;20.42;;;;;;;;;;5074002;28;20031;-80
2024/03/06 11:56:20;;;;;;;72.50;35.20;;;;;;;;;;5073134;28;20195;-79
2024/03/06 11:58:46;;;;;;;45.83;24.55;;;;;;;;;;5072199;28;20029;-80
2024/03/06 12:01:13;;;;;;;32.58;17.02;;;;;;;;;;5071419;28;20470;-74
2024/03/06 12:03:39;;;;;;;37.15;20.30;;;;;;;;;;5072438;28;20020;-80
2024/03/06 12:06:05;;;;;;;39.47;19.35;;;;;;;;;;5071347;28;20551;-74
2024/03/06 12:08:31;;;;;;;36.47;19.98;;;;;;;;;;5072131;28;20025;-80
2024/03/06 12:10:58;;;;;;;45.33;25.00;;;;;;;;;;5064238;28;20033;-80
2024/03/06 12:13:25;;;;;;;40.95;20.25;;;;;;;;;;5073043;28;20021;-80
2024/03/06 12:15:51;;;;;;;36.92;17.92;;;;;;;;;;5070705;28;20108;-80
2024/03/06 12:18:20;;;;;;;38.28;20.42;;;;;;;;;;5072984;28;20034;-74
2024/03/06 12:20:46;;;;;;;39.08;20.73;;;;;;;;;;5070707;28;20036;-80
2024/03/06 12:23:31;;;;;;;44.28;20.02;;;;;;;;;;5071947;28;20021;-80
2024/03/06 12:26:04;;;;;;;43.22;21.02;;;;;;;;;;5047877;28;20072;-73
2024/03/06 12:28:30;;;;;;;;;;;;;;;;;;5048764;28;20098;-74
2024/03/06 12:31:00;;;;;;;35.20;19.17;;;;;;;;;;5055065;28;19908;-73
2024/03/06 12:33:27;;;;;;;33.88;18.02;;;;;;;;;;5055052;28;20041;-73
2024/03/06 12:36:02;;;;;;;36.17;19.85;;;;;;;;;;5059409;28;20032;-73
2024/03/06 12:38:29;;;;;;;41.75;23.05;;;;;;;;;;5052098;28;20028;-73
2024/03/06 12:40:55;;;;;;;45.28;24.65;;;;;;;;;;5053400;28;20143;-73
2024/03/06 12:43:21;;;;;;;44.78;24.08;;;;;;;;;;5044216;28;20048;-73
2024/03/06 12:45:47;;;;;;;48.58;24.90;;;;;;;;;;5057984;28;20033;-73
2024/03/06 12:48:13;;;;;;;41.55;23.42;;;;;;;;;;5051154;28;20033;-72
2024/03/06 12:50:50;;;;;;;55.17;26.17;;;;;;;;;;5058260;28;20036;-73
2024/03/06 12:53:16;;;;;;;49.63;24.42;;;;;;;;;;5052151;28;20017;-73
2024/03/06 12:55:45;;;;;;;50.30;25.08;;;;;;;;;;5055416;28;20086;-73
2024/03/06 12:58:11;;;;;;;38.75;20.65;;;;;;;;;;5051279;28;20413;-73
2024/03/06 13:00:37;;;;;;;41.65;22.02;;;;;;;;;;5053972;28;20060;-73
2024/03/06 13:03:04;;;;;;;47.10;23.27;;;;;;;;;;5055040;28;20063;-73
2024/03/06 13:05:31;;;;;;;45.15;23.98;;;;;;;;;;5050549;28;20507;-74
2024/03/06 13:07:57;;;;;;;44.75;22.58;;;;;;;;;;5050478;28;20131;-73
2024/03/06 13:10:23;;;;;;;43.00;22.33;;;;;;;;;;5048441;28;20049;-73
2024/03/06 13:12:49;;;;;;;51.58;25.33;;;;;;;;;;5052519;28;20031;-73
2024/03/06 13:15:15;;;;;;;49.83;23.58;;;;;;;;;;5046084;28;20075;-73
2024/03/06 13:17:41;;;;;;;36.38;21.70;;;;;;;;;;5058043;28;20025;-73
2024/03/06 13:20:14;;;;;;;44.47;24.00;;;;;;;;;;5044415;28;20041;-72
2024/03/06 13:22:40;;;;;;;49.78;24.08;;;;;;;;;;5054287;28;20073;-73
2024/03/06 13:25:07;;;;;;;48.65;24.58;;;;;;;;;;5051110;28;20044;-73
2024/03/06 13:27:33;;;;;;;48.90;27.90;;;;;;;;;;5051145;28;20052;-73
2024/03/06 13:29:59;;;;;;;56.05;27.92;;;;;;;;;;5052946;28;20049;-73
2024/03/06 13:32:26;;;;;;;53.47;25.15;;;;;;;;;;5055497;28;20482;-72
2024/03/06 13:34:52;;;;;;;51.92;26.08;;;;;;;;;;5050072;28;20550;-73
2024/03/06 13:37:22;;;;;;;53.08;25.67;;;;;;;;;;5052410;28;20107;-73
2024/03/06 13:39:48;;;;;;;55.85;27.35;;;;;;;;;;5046109;28;20079;-73
2024/03/06 13:42:14;;;;;;;50.13;24.90;;;;;;;;;;5049373;28;20024;-73
2024/03/06 13:44:40;;;;;;;56.75;28.15;;;;;;;;;;5049964;28;20061;-72
2024/03/06 13:47:08;;;;;;;60.97;30.15;;;;;;;;;;5046405;28;20108;-73
2024/03/06 13:49:35;;;;;;;46.97;24.35;;;;;;;;;;5049728;28;20017;-79
2024/03/06 13:52:01;;;;;;;61.78;31.70;;;;;;;;;;5053305;28;20522;-79
2024/03/06 13:54:27;;;;;;;56.45;27.67;;;;;;;;;;5055447;28;20013;-80
2024/03/06 13:57:01;;;;;;;47.05;25.58;;;;;;;;;;5054703;28;20029;-79
2024/03/06 13:59:27;;;;;;;52.08;30.35;;;;;;;;;;5050731;28;20035;-79
2024/03/06 14:01:53;;;;;;;45.85;25.15;;;;;;;;;;5052692;28;20048;-79
2024/03/06 14:04:19;;;;;;;50.78;29.92;;;;;;;;;;5063489;28;20073;-80
2024/03/06 14:06:45;;;;;;;46.20;23.90;;;;;;;;;;5061359;28;20033;-79
2024/03/06 14:09:13;;;;;;;46.47;22.15;;;;;;;;;;5063970;28;20511;-79
2024/03/06 14:11:40;;;;;;;46.30;22.92;;;;;;;;;;5049853;28;20068;-79
2024/03/06 14:14:06;;;;;;;39.83;22.70;;;;;;;;;;5054373;28;20028;-79